createdAt,value
2022-09-03T00:01:25.286Z,17.00
2022-09-03T00:06:50.698Z,16.94
2022-09-03T00:12:15.820Z,16.90
2022-09-03T00:17:43.845Z,16.92
2022-09-03T00:23:11.503Z,16.87
2022-09-03T00:28:43.481Z,16.86
2022-09-03T00:34:16.644Z,16.84
2022-09-03T00:39:40.129Z,16.85
2022-09-03T00:45:15.425Z,16.83
2022-09-03T00:50:54.076Z,16.74
2022-09-03T00:56:24.146Z,16.57
2022-09-03T01:01:52.955Z,16.49
2022-09-03T01:07:32.795Z,16.45
2022-09-03T01:13:09.134Z,16.40
2022-09-03T01:18:42.201Z,16.32
2022-09-03T01:24:17.805Z,16.22
2022-09-03T01:29:49.721Z,16.16
2022-09-03T01:35:24.305Z,16.03
2022-09-03T01:41:24.626Z,15.99
2022-09-03T01:47:00.692Z,16.00
2022-09-03T01:52:39.453Z,15.93
2022-09-03T01:58:12.486Z,15.84
2022-09-03T02:03:41.250Z,15.87
2022-09-03T02:09:04.180Z,15.85
2022-09-03T02:14:32.948Z,15.47
2022-09-03T02:19:56.349Z,15.29
2022-09-03T02:25:30.013Z,15.40
2022-09-03T02:30:54.563Z,15.40
2022-09-03T02:36:27.646Z,15.40
2022-09-03T02:42:04.052Z,15.24
2022-09-03T02:47:34.407Z,15.28
2022-09-03T02:53:02.659Z,15.29
2022-09-03T02:58:32.854Z,15.34
2022-09-03T03:04:01.784Z,15.36
2022-09-03T03:09:32.344Z,15.25
2022-09-03T03:14:55.756Z,15.33
2022-09-03T03:20:17.951Z,15.34
2022-09-03T03:25:48.610Z,15.45
2022-09-03T03:31:12.431Z,15.57
2022-09-03T03:36:38.466Z,15.66
2022-09-03T03:42:02.745Z,15.66
2022-09-03T03:47:28.901Z,15.50
2022-09-03T03:53:00.760Z,15.52
2022-09-03T03:58:32.281Z,15.59
2022-09-03T04:03:56.627Z,15.77
2022-09-03T04:09:19.620Z,15.72
2022-09-03T04:14:50.597Z,15.89
2022-09-03T04:20:13.511Z,15.91
2022-09-03T04:25:42.535Z,16.03
2022-09-03T04:31:13.503Z,16.03
2022-09-03T04:36:38.130Z,16.09
2022-09-03T04:42:07.019Z,16.05
2022-09-03T04:47:32.130Z,16.22
2022-09-03T04:53:05.842Z,16.41
2022-09-03T04:58:37.016Z,16.44
2022-09-03T05:04:05.471Z,16.52
2022-09-03T05:09:28.537Z,16.65
2022-09-03T05:14:54.829Z,16.63
2022-09-03T05:20:26.068Z,16.98
2022-09-03T05:25:58.400Z,17.18
2022-09-03T05:31:28.327Z,17.58
2022-09-03T05:36:53.159Z,17.77
2022-09-03T05:42:22.202Z,18.15
2022-09-03T05:47:46.906Z,18.84
2022-09-03T05:53:18.414Z,20.25
2022-09-03T05:58:48.185Z,21.99
2022-09-03T06:04:17.165Z,22.87
2022-09-03T06:09:47.399Z,24.17
2022-09-03T06:15:16.250Z,25.24
2022-09-03T06:20:38.896Z,26.08
2022-09-03T06:26:06.770Z,27.52
2022-09-03T06:31:30.173Z,27.80
2022-09-03T06:36:56.655Z,27.29
2022-09-03T06:42:24.374Z,27.18
2022-09-03T06:47:47.780Z,26.99
2022-09-03T06:53:16.900Z,27.60
2022-09-03T06:58:45.140Z,26.35
2022-09-03T07:04:16.393Z,26.03
2022-09-03T07:09:45.148Z,25.22
2022-09-03T07:15:12.642Z,25.48
2022-09-03T07:20:36.461Z,25.03
2022-09-03T07:26:03.150Z,24.69
2022-09-03T07:31:32.125Z,24.97
2022-09-03T07:36:56.347Z,26.47
2022-09-03T07:42:20.869Z,26.72
2022-09-03T07:47:51.112Z,25.30
2022-09-03T07:53:15.133Z,24.97
2022-09-03T07:58:42.427Z,25.07
2022-09-03T08:04:09.715Z,25.11
2022-09-03T08:09:39.317Z,25.29
2022-09-03T08:15:08.749Z,25.74
2022-09-03T08:20:37.891Z,25.44
2022-09-03T08:26:07.339Z,26.16
2022-09-03T08:31:34.658Z,26.60
2022-09-03T08:37:01.527Z,27.15
2022-09-03T08:42:34.072Z,27.78
2022-09-03T08:48:02.365Z,26.77
2022-09-03T08:53:31.388Z,27.25
2022-09-03T08:59:01.852Z,26.96
2022-09-03T09:04:32.521Z,26.74
2022-09-03T09:10:00.329Z,27.63
2022-09-03T09:15:31.808Z,28.47
2022-09-03T09:20:59.212Z,29.14
2022-09-03T09:26:23.659Z,29.38
2022-09-03T09:31:49.510Z,29.61
2022-09-03T09:37:19.193Z,28.86
2022-09-03T09:42:44.346Z,28.08
2022-09-03T09:48:24.290Z,27.81
2022-09-03T09:53:47.920Z,27.63
2022-09-03T09:59:12.985Z,27.43
2022-09-03T10:04:40.628Z,27.51
2022-09-03T10:10:05.762Z,27.08
2022-09-03T10:15:33.801Z,27.01
2022-09-03T10:21:06.334Z,26.89
2022-09-03T10:26:32.370Z,26.24
2022-09-03T10:32:04.937Z,26.52
2022-09-03T10:37:41.098Z,26.67
2022-09-03T10:43:15.909Z,27.06
2022-09-03T10:48:54.297Z,27.64
2022-09-03T10:54:32.118Z,27.88
2022-09-03T11:00:07.150Z,27.48
2022-09-03T11:05:37.130Z,27.57
2022-09-03T11:11:09.139Z,28.11
2022-09-03T11:16:33.606Z,28.15
2022-09-03T11:21:57.997Z,28.31
2022-09-03T11:27:27.913Z,27.99
2022-09-03T11:32:55.949Z,27.62
2022-09-03T11:38:27.471Z,27.44
2022-09-03T11:43:51.438Z,27.22
2022-09-03T11:49:15.131Z,27.16
2022-09-03T11:54:45.922Z,27.20
2022-09-03T12:00:18.204Z,26.97
2022-09-03T12:05:45.506Z,26.69
2022-09-03T12:11:24.720Z,26.04
2022-09-03T12:16:59.032Z,25.89
2022-09-03T12:22:28.841Z,25.56
2022-09-03T12:27:55.754Z,25.28
2022-09-03T12:33:19.926Z,25.34
2022-09-03T12:39:10.801Z,25.56
2022-09-03T12:44:41.208Z,25.35
2022-09-03T12:50:11.481Z,25.47
2022-09-03T12:55:44.773Z,25.51
2022-09-03T13:01:16.773Z,25.57
2022-09-03T13:06:49.960Z,25.58
2022-09-03T13:12:24.512Z,25.41
2022-09-03T13:18:06.547Z,25.40
2022-09-03T13:23:37.459Z,25.50
2022-09-03T13:29:15.517Z,25.47
2022-09-03T13:34:50.480Z,25.54
2022-09-03T13:40:17.566Z,25.45
2022-09-03T13:45:42.569Z,25.29
2022-09-03T13:51:15.833Z,25.22
2022-09-03T13:56:54.731Z,25.28
2022-09-03T14:02:28.232Z,25.01
2022-09-03T14:08:07.634Z,24.78
2022-09-03T14:13:40.182Z,24.65
2022-09-03T14:19:07.227Z,24.49
2022-09-03T14:24:41.681Z,24.36
2022-09-03T14:30:19.431Z,24.21
2022-09-03T14:35:50.852Z,24.13
2022-09-03T14:41:37.421Z,24.07
2022-09-03T14:47:12.130Z,23.99
2022-09-03T14:52:58.376Z,23.87
2022-09-03T14:58:38.113Z,23.76
2022-09-03T15:04:19.961Z,23.74
2022-09-03T15:09:46.385Z,23.74
2022-09-03T15:15:19.763Z,23.70
2022-09-03T15:20:49.907Z,23.55
2022-09-03T15:26:31.310Z,23.44
2022-09-03T15:32:05.128Z,23.24
2022-09-03T15:37:38.397Z,23.09
2022-09-03T15:43:09.841Z,22.95
2022-09-03T15:48:45.444Z,22.88
2022-09-03T15:54:18.519Z,22.75
2022-09-03T15:59:52.385Z,22.63
2022-09-03T16:05:20.603Z,22.59
2022-09-03T16:10:51.074Z,22.47
2022-09-03T16:16:22.871Z,22.47
2022-09-03T16:22:00.452Z,22.45
2022-09-03T16:27:31.829Z,22.38
2022-09-03T16:33:06.809Z,22.28
2022-09-03T16:38:39.211Z,22.18
2022-09-03T16:44:07.225Z,22.18
2022-09-03T16:49:42.151Z,22.19
2022-09-03T16:55:18.895Z,22.15
2022-09-03T17:00:55.740Z,22.10
2022-09-03T17:06:29.338Z,22.02
2022-09-03T17:12:07.413Z,21.86
2022-09-03T17:17:45.166Z,21.80
2022-09-03T17:23:14.494Z,21.72
2022-09-03T17:28:52.575Z,21.60
2022-09-03T17:34:27.442Z,21.52
2022-09-03T17:40:05.198Z,21.51
2022-09-03T17:45:42.857Z,21.36
2022-09-03T17:51:16.543Z,21.28
2022-09-03T17:56:49.241Z,21.25
2022-09-03T18:02:25.266Z,21.21
2022-09-03T18:08:00.299Z,21.15
2022-09-03T18:13:30.892Z,21.16
2022-09-03T18:19:04.810Z,21.12
2022-09-03T18:24:51.966Z,21.03
2022-09-03T18:30:44.436Z,21.02
2022-09-03T18:36:30.378Z,20.94
2022-09-03T18:42:18.143Z,20.91
2022-09-03T18:48:15.289Z,20.82
2022-09-03T18:54:11.660Z,20.78
2022-09-03T19:00:04.969Z,20.58
2022-09-03T19:05:53.397Z,20.38
2022-09-03T19:11:41.332Z,20.17
2022-09-03T19:17:33.147Z,20.05
2022-09-03T19:23:17.217Z,19.89
2022-09-03T19:29:06.590Z,19.81
2022-09-03T19:35:05.265Z,19.50
2022-09-03T19:40:56.723Z,19.31
2022-09-03T19:46:44.802Z,19.05
2022-09-03T19:52:37.278Z,18.76
2022-09-03T19:58:41.456Z,18.56
2022-09-03T20:04:25.334Z,18.25
2022-09-03T20:10:13.741Z,17.93
2022-09-03T20:15:49.692Z,17.60
2022-09-03T20:21:22.965Z,17.39
2022-09-03T20:26:49.735Z,17.27
2022-09-03T20:32:27.443Z,17.12
2022-09-03T20:37:56.193Z,16.91
2022-09-03T20:43:38.838Z,16.69
2022-09-03T20:49:14.067Z,16.49
2022-09-03T20:54:42.539Z,16.25
2022-09-03T21:00:08.326Z,16.13
2022-09-03T21:05:42.251Z,16.00
2022-09-03T21:11:15.956Z,15.93
2022-09-03T21:16:49.237Z,15.88
2022-09-03T21:22:25.265Z,15.90
2022-09-03T21:27:59.039Z,15.84
2022-09-03T21:33:24.908Z,15.81
2022-09-03T21:38:49.237Z,15.71
2022-09-03T21:44:16.515Z,15.68
2022-09-03T21:49:50.662Z,15.57
2022-09-03T21:55:23.799Z,15.49
2022-09-03T22:00:56.861Z,15.34
2022-09-03T22:06:26.002Z,15.22
2022-09-03T22:11:59.432Z,15.08
2022-09-03T22:17:36.786Z,15.06
2022-09-03T22:23:12.110Z,14.98
2022-09-03T22:28:43.823Z,14.94
2022-09-03T22:34:15.585Z,14.92
2022-09-03T22:39:40.614Z,14.93
2022-09-03T22:45:19.515Z,14.81
2022-09-03T22:50:48.757Z,14.70
2022-09-03T22:56:21.995Z,14.68
2022-09-03T23:01:57.860Z,14.60
2022-09-03T23:07:31.596Z,14.52
2022-09-03T23:13:04.941Z,14.46
2022-09-03T23:18:33.555Z,14.49
2022-09-03T23:24:03.637Z,14.45
2022-09-03T23:29:35.872Z,14.41
2022-09-03T23:35:00.600Z,14.33
2022-09-03T23:40:38.885Z,14.28
2022-09-03T23:46:14.593Z,14.29
2022-09-03T23:51:51.037Z,14.26
2022-09-03T23:57:22.730Z,14.27
